createdAt,value
2023-03-31T00:00:23.201Z,89.90
2023-03-31T00:02:50.083Z,90.30
2023-03-31T00:05:18.154Z,91.00
2023-03-31T00:07:45.944Z,91.20
2023-03-31T00:10:18.214Z,90.80
2023-03-31T00:12:46.084Z,91.00
2023-03-31T00:15:13.400Z,90.90
2023-03-31T00:17:40.387Z,91.30
2023-03-31T00:20:12.224Z,91.10
2023-03-31T00:22:42.214Z,91.30
2023-03-31T00:25:16.275Z,91.00
2023-03-31T00:27:44.211Z,90.90
2023-03-31T00:30:14.631Z,90.60
2023-03-31T00:32:41.981Z,92.10
2023-03-31T00:35:09.142Z,91.50
2023-03-31T00:37:35.981Z,91.40
2023-03-31T00:40:10.117Z,91.30
2023-03-31T00:42:44.226Z,91.40
2023-03-31T00:45:15.537Z,91.70
2023-03-31T00:47:47.351Z,91.60
2023-03-31T00:50:23.065Z,91.90
2023-03-31T00:52:56.839Z,92.10
2023-03-31T00:55:30.772Z,92.10
2023-03-31T00:57:58.643Z,92.10
2023-03-31T01:00:25.550Z,91.40
2023-03-31T01:02:58.765Z,91.50
2023-03-31T01:05:29.238Z,91.60
2023-03-31T01:07:57.853Z,92.00
2023-03-31T01:10:24.720Z,92.20
2023-03-31T01:12:54.184Z,93.00
2023-03-31T01:15:21.578Z,93.40
2023-03-31T01:17:51.020Z,94.00
2023-03-31T01:20:51.560Z,94.00
2023-03-31T01:23:30.570Z,93.90
2023-03-31T01:26:16.053Z,93.80
2023-03-31T01:29:12.403Z,93.50
2023-03-31T01:32:03.539Z,93.10
2023-03-31T01:34:49.410Z,92.70
2023-03-31T01:37:53.708Z,92.70
2023-03-31T01:40:26.566Z,92.40
2023-03-31T01:43:26.190Z,92.10
2023-03-31T01:46:00.099Z,92.20
2023-03-31T01:48:36.684Z,91.90
2023-03-31T01:51:12.903Z,91.80
2023-03-31T01:54:34.056Z,91.60
2023-03-31T01:57:12.456Z,91.60
2023-03-31T01:59:45.466Z,91.70
2023-03-31T02:02:22.397Z,91.60
2023-03-31T02:04:54.137Z,91.60
2023-03-31T02:07:27.577Z,91.50
2023-03-31T02:09:58.776Z,91.60
2023-03-31T02:12:28.165Z,91.70
2023-03-31T02:14:57.342Z,91.80
2023-03-31T02:17:30.454Z,91.70
2023-03-31T02:20:00.469Z,91.40
2023-03-31T02:22:31.301Z,91.50
2023-03-31T02:25:01.166Z,91.60
2023-03-31T02:27:37.132Z,91.30
2023-03-31T02:30:04.740Z,91.50
2023-03-31T02:32:36.898Z,91.40
2023-03-31T02:35:06.153Z,91.30
2023-03-31T02:37:33.229Z,91.00
2023-03-31T02:40:05.423Z,90.80
2023-03-31T02:42:32.450Z,90.70
2023-03-31T02:45:07.456Z,90.90
2023-03-31T02:47:34.806Z,91.50
2023-03-31T02:50:04.043Z,91.20
2023-03-31T02:52:55.387Z,91.00
2023-03-31T02:55:43.765Z,90.80
2023-03-31T02:58:44.524Z,90.80
2023-03-31T03:01:15.661Z,90.60
2023-03-31T03:04:00.542Z,90.40
2023-03-31T03:06:55.009Z,90.30
2023-03-31T03:09:40.525Z,90.40
2023-03-31T03:12:19.500Z,90.40
2023-03-31T03:15:07.653Z,90.50
2023-03-31T03:17:44.864Z,90.50
2023-03-31T03:20:12.692Z,90.50
2023-03-31T03:22:40.642Z,90.60
2023-03-31T03:25:09.588Z,90.50
2023-03-31T03:27:37.037Z,90.50
2023-03-31T03:30:05.602Z,90.50
2023-03-31T03:32:33.736Z,90.60
2023-03-31T03:35:01.969Z,90.50
2023-03-31T03:37:30.840Z,90.50
2023-03-31T03:39:57.721Z,90.40
2023-03-31T03:42:24.479Z,90.30
2023-03-31T03:44:51.223Z,90.40
2023-03-31T03:47:17.933Z,90.30
2023-03-31T03:49:44.631Z,90.20
2023-03-31T03:52:11.324Z,90.20
2023-03-31T03:54:38.139Z,90.10
2023-03-31T03:57:04.967Z,90.00
2023-03-31T03:59:31.685Z,89.90
2023-03-31T04:01:58.543Z,89.90
2023-03-31T04:04:25.259Z,89.90
2023-03-31T04:06:51.977Z,89.80
2023-03-31T04:09:18.728Z,89.80
2023-03-31T04:11:45.529Z,89.70
2023-03-31T04:14:12.260Z,89.10
2023-03-31T04:16:40.540Z,88.80
2023-03-31T04:19:08.372Z,88.60
2023-03-31T04:21:35.259Z,88.40
2023-03-31T04:24:04.370Z,88.40
2023-03-31T04:26:42.968Z,88.20
2023-03-31T04:29:16.002Z,88.10
2023-03-31T04:31:43.981Z,88.20
2023-03-31T04:34:14.025Z,88.20
2023-03-31T04:36:48.676Z,88.40
2023-03-31T04:39:17.342Z,89.00
2023-03-31T04:41:44.763Z,89.80
2023-03-31T04:44:11.495Z,90.20
2023-03-31T04:46:38.271Z,90.30
2023-03-31T04:49:05.769Z,90.40
2023-03-31T04:51:32.690Z,90.70
2023-03-31T04:53:59.525Z,91.10
2023-03-31T04:56:26.680Z,91.20
2023-03-31T04:58:53.474Z,91.40
2023-03-31T05:01:20.482Z,91.40
2023-03-31T05:03:48.103Z,91.60
2023-03-31T05:06:16.680Z,91.60
2023-03-31T05:08:44.343Z,91.80
2023-03-31T05:11:11.444Z,91.80
2023-03-31T05:13:38.382Z,91.90
2023-03-31T05:16:10.800Z,92.10
2023-03-31T05:18:37.795Z,92.10
2023-03-31T05:21:14.626Z,91.90
2023-03-31T05:23:41.714Z,92.10
2023-03-31T05:26:09.198Z,92.10
2023-03-31T05:28:36.615Z,92.00
2023-03-31T05:31:04.498Z,91.90
2023-03-31T05:33:31.748Z,92.10
2023-03-31T05:36:00.287Z,92.20
2023-03-31T05:38:31.701Z,92.10
2023-03-31T05:40:58.575Z,92.10
2023-03-31T05:43:25.857Z,92.00
2023-03-31T05:45:52.882Z,91.70
2023-03-31T05:48:19.713Z,91.70
2023-03-31T05:50:46.478Z,91.70
2023-03-31T05:53:13.191Z,92.00
2023-03-31T05:55:39.951Z,92.20
2023-03-31T05:58:06.885Z,92.10
2023-03-31T06:00:35.935Z,92.00
2023-03-31T06:03:02.893Z,92.20
2023-03-31T06:05:31.163Z,92.30
2023-03-31T06:07:58.117Z,92.40
2023-03-31T06:10:24.990Z,92.40
2023-03-31T06:12:51.872Z,92.30
2023-03-31T06:15:18.572Z,92.30
2023-03-31T06:17:45.563Z,92.30
2023-03-31T06:20:24.451Z,92.20
2023-03-31T06:22:53.604Z,92.30
2023-03-31T06:25:20.371Z,92.20
2023-03-31T06:27:47.064Z,92.20
2023-03-31T06:30:14.011Z,92.10
2023-03-31T06:32:40.848Z,92.00
2023-03-31T06:35:07.946Z,92.00
2023-03-31T06:37:34.650Z,91.90
2023-03-31T06:40:01.418Z,92.00
2023-03-31T06:42:28.145Z,92.10
2023-03-31T06:44:55.831Z,92.10
2023-03-31T06:47:22.780Z,91.90
2023-03-31T06:49:49.706Z,92.10
2023-03-31T06:52:16.504Z,92.10
2023-03-31T06:54:43.347Z,92.20
2023-03-31T06:57:10.192Z,92.20
2023-03-31T06:59:37.019Z,92.30
2023-03-31T07:02:03.899Z,92.20
2023-03-31T07:04:30.765Z,92.30
2023-03-31T07:06:59.406Z,91.90
2023-03-31T07:09:26.114Z,92.00
2023-03-31T07:11:56.330Z,92.10
2023-03-31T07:14:23.527Z,92.00
2023-03-31T07:16:50.937Z,91.90
2023-03-31T07:19:18.072Z,91.90
2023-03-31T07:21:44.948Z,91.60
2023-03-31T07:24:11.707Z,91.50
2023-03-31T07:26:38.437Z,91.50
2023-03-31T07:29:05.362Z,91.60
2023-03-31T07:31:32.187Z,91.60
2023-03-31T07:33:59.097Z,91.50
2023-03-31T07:36:26.106Z,91.40
2023-03-31T07:38:52.893Z,91.60
2023-03-31T07:41:21.709Z,91.30
2023-03-31T07:43:50.182Z,91.30
2023-03-31T07:46:25.989Z,91.40
2023-03-31T07:48:54.047Z,91.50
2023-03-31T07:51:26.569Z,91.30
2023-03-31T07:53:53.576Z,91.70
2023-03-31T07:56:22.500Z,91.80
2023-03-31T07:58:51.458Z,91.60
2023-03-31T08:01:21.778Z,91.80
2023-03-31T08:03:49.030Z,92.00
2023-03-31T08:06:20.897Z,92.40
2023-03-31T08:08:48.298Z,92.10
2023-03-31T08:11:15.519Z,92.50
2023-03-31T08:13:42.446Z,92.90
2023-03-31T08:16:09.578Z,92.80
2023-03-31T08:18:36.704Z,92.80
2023-03-31T08:21:03.539Z,93.00
2023-03-31T08:23:30.388Z,92.80
2023-03-31T08:26:08.800Z,93.30
2023-03-31T08:28:35.915Z,93.00
2023-03-31T08:31:04.824Z,93.40
2023-03-31T08:33:31.627Z,93.40
2023-03-31T08:36:02.647Z,93.10
2023-03-31T08:38:29.847Z,93.30
2023-03-31T08:41:04.479Z,93.20
2023-03-31T08:43:36.810Z,93.00
2023-03-31T08:46:05.363Z,93.20
2023-03-31T08:48:45.477Z,93.00
2023-03-31T08:51:18.608Z,93.00
2023-03-31T08:53:50.681Z,93.00
2023-03-31T08:56:20.784Z,93.10
2023-03-31T08:58:49.965Z,93.20
2023-03-31T09:01:55.648Z,93.20
2023-03-31T09:04:56.356Z,93.20
2023-03-31T09:07:29.927Z,92.70
2023-03-31T09:10:11.742Z,93.00
2023-03-31T09:12:48.766Z,93.00
2023-03-31T09:15:28.545Z,93.00
2023-03-31T09:17:59.408Z,93.10
2023-03-31T09:20:31.093Z,93.40
2023-03-31T09:23:27.998Z,93.40
2023-03-31T09:25:56.633Z,93.60
2023-03-31T09:28:34.834Z,93.60
2023-03-31T09:31:08.361Z,93.60
2023-03-31T09:33:39.563Z,93.80
2023-03-31T09:36:18.244Z,93.40
2023-03-31T09:38:46.660Z,93.50
2023-03-31T09:41:16.131Z,93.10
2023-03-31T09:43:45.979Z,92.70
2023-03-31T09:46:35.050Z,91.40
2023-03-31T09:49:07.635Z,91.50
2023-03-31T09:51:37.393Z,90.60
2023-03-31T09:54:18.232Z,90.70
2023-03-31T09:56:48.800Z,91.10
2023-03-31T09:59:19.853Z,89.50
2023-03-31T10:01:52.631Z,90.30
2023-03-31T10:04:24.056Z,90.70
2023-03-31T10:06:53.498Z,91.20
2023-03-31T10:09:38.033Z,91.70
2023-03-31T10:12:09.045Z,91.40
2023-03-31T10:14:46.257Z,90.60
2023-03-31T10:17:18.866Z,90.60
2023-03-31T10:19:49.823Z,90.60
2023-03-31T10:22:28.836Z,90.70
2023-03-31T10:25:14.475Z,89.90
2023-03-31T10:27:42.462Z,90.00
2023-03-31T10:30:12.033Z,90.40
2023-03-31T10:32:43.225Z,90.90
2023-03-31T10:35:25.431Z,87.10
2023-03-31T10:37:56.970Z,89.80
2023-03-31T10:40:26.407Z,84.80
2023-03-31T10:43:16.825Z,89.10
2023-03-31T10:45:49.415Z,87.50
2023-03-31T10:48:20.346Z,87.60
2023-03-31T10:50:48.343Z,87.70
2023-03-31T10:53:17.244Z,85.50
2023-03-31T10:55:56.744Z,85.00
2023-03-31T10:58:34.154Z,86.40
2023-03-31T11:01:27.191Z,86.30
2023-03-31T11:03:57.326Z,88.30
2023-03-31T11:06:44.499Z,86.60
2023-03-31T11:09:37.815Z,87.00
2023-03-31T11:12:23.948Z,86.40
2023-03-31T11:15:09.385Z,87.50
2023-03-31T11:18:13.565Z,85.90
2023-03-31T11:20:53.400Z,85.70
2023-03-31T11:23:47.004Z,86.20
2023-03-31T11:26:41.133Z,83.60
2023-03-31T11:29:16.328Z,83.50
2023-03-31T11:31:53.193Z,83.40
2023-03-31T11:34:37.355Z,82.80
2023-03-31T11:37:17.129Z,82.20
2023-03-31T11:40:00.956Z,81.70
2023-03-31T11:42:42.200Z,78.50
2023-03-31T11:46:19.733Z,78.90
2023-03-31T11:48:59.658Z,80.10
2023-03-31T11:51:28.692Z,80.80
2023-03-31T11:53:58.542Z,78.10
2023-03-31T11:56:36.350Z,81.90
2023-03-31T11:59:04.257Z,78.80
2023-03-31T12:01:48.816Z,80.80
2023-03-31T12:04:24.644Z,78.40
2023-03-31T12:07:00.159Z,79.60
2023-03-31T12:09:38.299Z,77.90
2023-03-31T12:12:22.486Z,80.40
2023-03-31T12:15:03.120Z,77.70
2023-03-31T12:17:30.510Z,79.40
2023-03-31T12:20:10.568Z,76.00
2023-03-31T12:22:45.945Z,77.90
2023-03-31T12:25:22.873Z,73.50
2023-03-31T12:27:51.492Z,75.30
2023-03-31T12:30:22.722Z,75.10
2023-03-31T12:32:59.095Z,74.40
2023-03-31T12:35:44.751Z,70.70
2023-03-31T12:38:17.720Z,67.60
2023-03-31T12:41:34.939Z,66.30
2023-03-31T12:44:27.543Z,64.60
2023-03-31T12:47:15.085Z,61.40
2023-03-31T12:49:50.508Z,59.20
2023-03-31T12:52:22.519Z,61.00
2023-03-31T12:55:20.322Z,54.90
2023-03-31T12:57:47.640Z,57.70
2023-03-31T13:00:30.189Z,55.60
2023-03-31T13:03:46.146Z,55.00
2023-03-31T13:06:36.685Z,58.60
2023-03-31T13:09:13.792Z,58.70
2023-03-31T13:11:50.759Z,55.50
2023-03-31T13:14:28.616Z,54.40
2023-03-31T13:17:14.974Z,47.00
2023-03-31T13:19:42.469Z,51.30
2023-03-31T13:22:36.325Z,51.10
2023-03-31T13:25:34.144Z,52.70
2023-03-31T13:28:14.902Z,49.80
2023-03-31T13:30:41.620Z,49.00
2023-03-31T13:33:31.609Z,48.20
2023-03-31T13:36:19.274Z,49.90
2023-03-31T13:39:12.872Z,47.50
2023-03-31T13:42:01.426Z,48.40
2023-03-31T13:44:51.371Z,46.10
2023-03-31T13:47:28.412Z,48.90
2023-03-31T13:50:18.046Z,52.30
2023-03-31T13:52:53.744Z,57.20
2023-03-31T13:55:42.368Z,60.60
2023-03-31T13:58:38.804Z,62.70
2023-03-31T14:01:19.945Z,62.20
2023-03-31T14:04:12.142Z,76.40
2023-03-31T14:06:48.581Z,89.00
2023-03-31T14:09:29.302Z,92.50
2023-03-31T14:11:59.218Z,93.40
2023-03-31T14:14:26.948Z,93.00
2023-03-31T14:17:02.508Z,93.30
2023-03-31T14:19:54.169Z,93.60
2023-03-31T14:22:32.834Z,93.80
2023-03-31T14:25:16.319Z,93.10
2023-03-31T14:28:09.650Z,93.50
2023-03-31T14:30:46.741Z,92.70
2023-03-31T14:33:28.288Z,91.40
2023-03-31T14:36:32.676Z,91.80
2023-03-31T14:39:04.687Z,90.40
2023-03-31T14:41:32.435Z,90.20
2023-03-31T14:44:02.846Z,90.50
2023-03-31T14:46:35.038Z,89.20
2023-03-31T14:49:15.290Z,88.10
2023-03-31T14:51:45.537Z,80.20
2023-03-31T14:54:20.233Z,74.50
2023-03-31T14:56:59.375Z,71.20
2023-03-31T14:59:30.263Z,68.80
2023-03-31T15:01:59.256Z,67.90
2023-03-31T15:04:41.382Z,68.10
2023-03-31T15:07:09.816Z,70.60
2023-03-31T15:09:37.342Z,68.10
2023-03-31T15:12:13.606Z,68.20
2023-03-31T15:14:49.169Z,69.60
2023-03-31T15:17:21.951Z,67.10
2023-03-31T15:20:00.406Z,67.50
2023-03-31T15:22:29.709Z,71.40
2023-03-31T15:24:57.561Z,74.20
2023-03-31T15:27:39.225Z,70.30
2023-03-31T15:30:09.383Z,67.00
2023-03-31T15:32:37.978Z,68.10
2023-03-31T15:37:44.524Z,70.20
2023-03-31T15:40:27.636Z,67.80
2023-03-31T15:43:25.490Z,66.70
2023-03-31T15:45:54.846Z,62.70
2023-03-31T15:48:34.805Z,61.10
2023-03-31T15:51:13.943Z,58.70
2023-03-31T15:53:51.056Z,60.90
2023-03-31T15:56:36.465Z,67.50
2023-03-31T15:59:34.128Z,70.90
2023-03-31T16:02:19.347Z,71.50
2023-03-31T16:04:51.430Z,71.80
2023-03-31T16:07:21.162Z,73.30
2023-03-31T16:09:55.991Z,74.40
2023-03-31T16:12:30.206Z,72.00
2023-03-31T16:15:08.173Z,69.00
2023-03-31T16:17:43.054Z,70.20
2023-03-31T16:20:22.728Z,70.60
2023-03-31T16:22:54.283Z,72.50
2023-03-31T16:25:23.923Z,72.10
2023-03-31T16:28:01.843Z,73.20
2023-03-31T16:30:40.280Z,74.00
2023-03-31T16:33:12.155Z,74.20
2023-03-31T16:35:41.957Z,72.50
2023-03-31T16:38:11.476Z,70.90
2023-03-31T16:40:40.798Z,69.80
2023-03-31T16:43:18.952Z,70.10
2023-03-31T16:45:51.532Z,68.20
2023-03-31T16:48:19.932Z,69.20
2023-03-31T16:50:48.618Z,71.00
2023-03-31T16:53:19.838Z,73.70
2023-03-31T16:55:47.177Z,72.50
2023-03-31T16:58:14.470Z,74.10
2023-03-31T17:00:41.997Z,73.90
2023-03-31T17:03:10.265Z,74.50
2023-03-31T17:05:42.159Z,73.20
2023-03-31T17:08:10.147Z,73.90
2023-03-31T17:10:38.215Z,73.20
2023-03-31T17:13:06.236Z,72.00
2023-03-31T17:15:35.038Z,72.80
2023-03-31T17:18:03.542Z,73.50
2023-03-31T17:20:31.422Z,71.00
2023-03-31T17:22:58.747Z,72.30
2023-03-31T17:25:26.061Z,73.00
2023-03-31T17:27:52.912Z,73.60
2023-03-31T17:30:19.744Z,73.60
2023-03-31T17:32:50.687Z,73.60
2023-03-31T17:35:21.571Z,73.10
2023-03-31T17:37:55.967Z,73.10
2023-03-31T17:40:25.955Z,74.20
2023-03-31T17:43:04.353Z,75.10
2023-03-31T17:45:32.225Z,74.70
2023-03-31T17:47:59.922Z,75.40
2023-03-31T17:50:27.126Z,74.80
2023-03-31T17:52:54.256Z,75.10
2023-03-31T17:55:21.464Z,75.80
2023-03-31T17:57:48.371Z,75.60
2023-03-31T18:00:16.500Z,75.20
2023-03-31T18:02:43.799Z,75.50
2023-03-31T18:05:11.346Z,75.80
2023-03-31T18:07:38.528Z,74.60
2023-03-31T18:10:06.295Z,75.50
2023-03-31T18:12:34.383Z,74.70
2023-03-31T18:15:02.791Z,74.50
2023-03-31T18:17:31.436Z,74.40
2023-03-31T18:19:59.178Z,74.80
2023-03-31T18:22:26.828Z,74.30
2023-03-31T18:24:53.632Z,74.60
2023-03-31T18:27:22.555Z,74.80
2023-03-31T18:29:50.957Z,74.60
2023-03-31T18:32:19.271Z,75.30
2023-03-31T18:34:48.853Z,75.10
2023-03-31T18:37:15.852Z,75.30
2023-03-31T18:39:43.311Z,75.30
2023-03-31T18:42:10.607Z,75.90
2023-03-31T18:44:39.373Z,75.50
2023-03-31T18:47:06.674Z,76.40
2023-03-31T18:49:36.560Z,76.00
2023-03-31T18:52:06.516Z,75.30
2023-03-31T18:54:36.964Z,75.20
2023-03-31T18:57:07.411Z,75.80
2023-03-31T18:59:34.257Z,75.20
2023-03-31T19:02:01.859Z,74.80
2023-03-31T19:04:30.194Z,75.30
2023-03-31T19:06:56.935Z,75.00
2023-03-31T19:09:26.374Z,75.50
2023-03-31T19:11:57.656Z,76.10
2023-03-31T19:14:24.985Z,76.10
2023-03-31T19:16:51.916Z,76.80
2023-03-31T19:19:18.698Z,77.10
2023-03-31T19:21:45.506Z,77.40
2023-03-31T19:24:12.304Z,77.30
2023-03-31T19:26:39.685Z,77.60
2023-03-31T19:29:06.928Z,78.00
2023-03-31T19:31:38.304Z,78.10
2023-03-31T19:34:06.288Z,77.80
2023-03-31T19:36:33.352Z,77.10
2023-03-31T19:39:01.080Z,77.40
2023-03-31T19:41:28.046Z,77.00
2023-03-31T19:43:55.319Z,76.90
2023-03-31T19:46:22.117Z,77.00
2023-03-31T19:48:49.031Z,75.70
2023-03-31T19:51:15.794Z,76.50
2023-03-31T19:53:42.980Z,76.50
2023-03-31T19:56:12.878Z,77.20
2023-03-31T19:58:40.101Z,76.10
2023-03-31T20:01:12.637Z,76.70
2023-03-31T20:03:39.471Z,77.00
2023-03-31T20:06:09.149Z,77.70
2023-03-31T20:08:37.083Z,76.50
2023-03-31T20:11:06.439Z,78.50
2023-03-31T20:13:35.725Z,78.30
2023-03-31T20:16:05.992Z,78.90
2023-03-31T20:18:33.431Z,78.70
2023-03-31T20:21:04.552Z,78.80
2023-03-31T20:23:32.257Z,79.60
2023-03-31T20:26:00.732Z,79.60
2023-03-31T20:28:29.139Z,80.10
2023-03-31T20:30:56.248Z,79.80
2023-03-31T20:33:24.131Z,80.10
2023-03-31T20:36:07.602Z,80.50
2023-03-31T20:38:37.367Z,80.20
2023-03-31T20:41:04.184Z,80.10
2023-03-31T20:43:30.937Z,79.80
2023-03-31T20:46:03.932Z,80.20
2023-03-31T20:48:32.569Z,79.50
2023-03-31T20:50:59.740Z,79.60
2023-03-31T20:53:27.199Z,79.40
2023-03-31T20:55:54.696Z,78.50
2023-03-31T20:58:21.703Z,78.90
2023-03-31T21:00:48.702Z,79.80
2023-03-31T21:03:15.794Z,79.10
2023-03-31T21:05:44.752Z,79.60
2023-03-31T21:08:12.561Z,79.70
2023-03-31T21:10:44.249Z,79.00
2023-03-31T21:13:13.701Z,80.00
2023-03-31T21:15:40.855Z,79.60
2023-03-31T21:18:08.276Z,80.30
2023-03-31T21:20:35.246Z,80.50
2023-03-31T21:23:02.641Z,80.10
2023-03-31T21:25:32.648Z,79.50
2023-03-31T21:27:59.523Z,78.70
2023-03-31T21:30:26.642Z,78.80
2023-03-31T21:32:53.900Z,78.50
2023-03-31T21:35:20.701Z,78.40
2023-03-31T21:37:47.488Z,79.30
2023-03-31T21:40:14.486Z,79.40
2023-03-31T21:42:41.291Z,79.70
2023-03-31T21:45:08.729Z,80.80
2023-03-31T21:47:36.180Z,81.70
2023-03-31T21:50:03.372Z,82.40
2023-03-31T21:52:30.306Z,82.30
2023-03-31T21:54:57.607Z,83.40
2023-03-31T21:57:24.423Z,83.40
2023-03-31T21:59:51.139Z,84.70
2023-03-31T22:02:17.892Z,84.90
2023-03-31T22:04:44.757Z,84.40
2023-03-31T22:07:13.880Z,85.70
2023-03-31T22:09:41.232Z,85.30
2023-03-31T22:12:08.011Z,86.00
2023-03-31T22:14:37.649Z,86.40
2023-03-31T22:17:04.395Z,86.40
2023-03-31T22:19:31.845Z,86.70
2023-03-31T22:22:00.890Z,86.80
2023-03-31T22:24:27.701Z,87.30
2023-03-31T22:26:54.514Z,87.20
2023-03-31T22:29:21.570Z,87.30
2023-03-31T22:31:48.410Z,87.10
2023-03-31T22:34:15.894Z,87.40
2023-03-31T22:36:42.866Z,87.50
2023-03-31T22:39:10.323Z,88.10
2023-03-31T22:41:37.096Z,88.10
2023-03-31T22:44:03.976Z,88.60
2023-03-31T22:46:31.654Z,88.80
2023-03-31T22:48:59.001Z,89.10
2023-03-31T22:51:25.799Z,89.40
2023-03-31T22:53:54.634Z,89.40
2023-03-31T22:56:23.031Z,89.20
2023-03-31T22:58:51.245Z,89.20
2023-03-31T23:01:20.526Z,88.90
2023-03-31T23:03:48.204Z,89.20
2023-03-31T23:06:16.326Z,89.10
2023-03-31T23:08:45.310Z,88.70
2023-03-31T23:11:12.876Z,88.40
2023-03-31T23:13:39.723Z,88.90
2023-03-31T23:16:08.502Z,88.60
2023-03-31T23:18:36.603Z,88.60
2023-03-31T23:21:06.952Z,88.80
2023-03-31T23:23:33.784Z,89.10
2023-03-31T23:26:02.197Z,89.20
2023-03-31T23:28:29.352Z,88.80
2023-03-31T23:30:59.174Z,88.80
2023-03-31T23:33:27.641Z,88.30
2023-03-31T23:36:03.218Z,88.00
2023-03-31T23:38:31.396Z,88.30
2023-03-31T23:40:58.525Z,88.20
2023-03-31T23:43:25.709Z,87.80
2023-03-31T23:45:52.839Z,86.90
2023-03-31T23:48:19.654Z,87.00
2023-03-31T23:50:46.703Z,86.80
2023-03-31T23:53:13.668Z,87.40
2023-03-31T23:55:40.715Z,86.90
2023-03-31T23:58:07.718Z,86.90
